Portada
METAR-TAF:

METAR-TAF

Aeroports :

Barranquilla, Colòmbia

latitud: 10-53N, longitud: 074-47W, altitud: 14 m

Observació

L'informe es va fer fa 1 hora i 7 minuts, a les 10:00 UTC
Vent 6 kt del Nord, variant entre Nord-Oest i Nord/Nord-Est
Temperatura 27°C
Humitat 84%
Pressió 1011 hPa
Visibilitat 10 km o més
Escasses núvols a una alçada de 1500 ft
Núvols disperses a una alçada de 20000 ft

METAR: SKBQ 211000Z 36006KT 310V030 9999 FEW015 SCT200 27/24 A2984 NOSIG

Hora: 06:07 (11:07 UTC)

Pronòstic

L'informe es va fer fa 6 hores i 37 minuts, a les 04:30 UTC
Pronòstic vàlid del 21 a les 06 UTC al 22 a les 06 UTC
Vent 10 kt del Nord/Nord-Est
Visibilitat 10 km o més
Núvols disperses a una alçada de 1500 ft

TAF: SKBQ 210430Z 2106/2206 02010KT 9999 SCT015 TX32/2117Z TN25/2110Z

Observacions i pronòstics meteorològics de més de 4000 aeroports (METAR i TAF).

Les estacions disponibles són els punts grocs i vermells al mapa.

Posi el ratolí al punt desitjat per veure el nom de l'estació.

Feu clic per veure les observacions i els pronòstics meteorològics.

Per canviar el mapa: feu clic els botons verds amb una creu de color negre per apropar; al botó verd amb un guió per allunyar la imatge; o en les fletxes verdes per a mapes adjacents.


METAR-TAF: